Tupelo, Mississippi
Current Conditions -  °F | °C
As of 2:43 AM on Sunday 26 Oct 2014 (Local Time) from KTUP Reporting Station
Haze Haze  
Wind Chill: 60°   Ceiling: Unl
Heat Index: 60°   Visibility: 3mi
Dew Point: 58°   Wind: 0mph
Humidity: 93%   Direction: NA
Pressure: 30.02"   Gusts: NA
Location:  34.26°N, 88.71°W
Report Text: KTUP 260743Z 00000KT 3SM BR CLR 16/14 A3002 RMK AO2 T01560144 $
Loading
Personal Weather Stations






























Interactive Weather Map New forecast layout! Learn more

10-Day Weather Forecast

Advertisements
Track Severe Weather on mobile